createdAt,value
2019-05-07T00:00:19.310Z,7.67
2019-05-07T00:01:19.303Z,7.71
2019-05-07T00:02:19.354Z,7.74
2019-05-07T00:03:19.273Z,7.77
2019-05-07T00:04:19.263Z,7.74
2019-05-07T00:05:19.253Z,7.77
2019-05-07T00:06:20.372Z,7.75
2019-05-07T00:07:19.232Z,7.77
2019-05-07T00:08:19.262Z,7.82
2019-05-07T00:09:19.214Z,7.85
2019-05-07T00:10:19.212Z,7.87
2019-05-07T00:11:19.192Z,7.85
2019-05-07T00:12:19.182Z,7.82
2019-05-07T00:13:19.460Z,7.71
2019-05-07T00:14:19.202Z,7.71
2019-05-07T00:15:19.151Z,7.59
2019-05-07T00:16:19.143Z,7.50
2019-05-07T00:17:19.134Z,7.42
2019-05-07T00:18:19.901Z,7.37
2019-05-07T00:19:19.111Z,7.37
2019-05-07T00:20:19.431Z,7.37
2019-05-07T00:21:19.098Z,7.35
2019-05-07T00:22:19.082Z,7.40
2019-05-07T00:23:19.070Z,7.45
2019-05-07T00:24:19.649Z,7.41
2019-05-07T00:25:19.050Z,7.44
2019-05-07T00:26:19.077Z,7.42
2019-05-07T00:27:19.329Z,7.49
2019-05-07T00:28:19.017Z,7.52
2019-05-07T00:29:19.010Z,7.59
2019-05-07T00:30:18.998Z,7.52
2019-05-07T00:31:18.979Z,7.55
2019-05-07T00:32:19.029Z,7.66
2019-05-07T00:33:18.971Z,7.71
2019-05-07T00:34:19.239Z,7.72
2019-05-07T00:35:18.939Z,7.77
2019-05-07T00:36:19.441Z,7.71
2019-05-07T00:37:18.919Z,7.62
2019-05-07T00:38:19.438Z,7.59
2019-05-07T00:39:18.899Z,7.60
2019-05-07T00:40:18.891Z,7.58
2019-05-07T00:41:19.187Z,7.56
2019-05-07T00:42:18.883Z,7.53
2019-05-07T00:43:18.879Z,7.50
2019-05-07T00:44:18.888Z,7.50
2019-05-07T00:45:21.614Z,7.52
2019-05-07T00:46:18.838Z,7.53
2019-05-07T00:47:18.817Z,7.56
2019-05-07T00:48:19.097Z,7.56
2019-05-07T00:49:18.801Z,7.52
2019-05-07T00:50:18.826Z,7.50
2019-05-07T00:51:18.798Z,7.40
2019-05-07T00:52:18.767Z,7.35
2019-05-07T00:53:18.756Z,7.32
2019-05-07T00:54:18.745Z,7.27
2019-05-07T00:55:20.056Z,7.31
2019-05-07T00:56:18.767Z,7.38
2019-05-07T00:57:18.716Z,7.45
2019-05-07T00:58:18.707Z,7.45
2019-05-07T00:59:18.697Z,7.44
2019-05-07T01:00:18.685Z,7.40
2019-05-07T01:01:18.675Z,7.29
2019-05-07T01:02:19.676Z,7.22
2019-05-07T01:03:18.665Z,7.08
2019-05-07T01:04:18.644Z,7.01
2019-05-07T01:05:18.666Z,6.97
2019-05-07T01:06:18.623Z,6.91
2019-05-07T01:07:18.605Z,6.84
2019-05-07T01:08:18.645Z,6.83
2019-05-07T01:09:18.875Z,6.77
2019-05-07T01:10:18.584Z,6.79
2019-05-07T01:11:18.565Z,6.80
2019-05-07T01:12:18.554Z,6.87
2019-05-07T01:13:18.563Z,6.97
2019-05-07T01:14:19.283Z,7.01
2019-05-07T01:15:28.783Z,7.04
2019-05-07T01:16:19.535Z,7.05
2019-05-07T01:17:18.504Z,7.04
2019-05-07T01:18:18.503Z,7.02
2019-05-07T01:19:18.483Z,7.05
2019-05-07T01:20:18.504Z,7.02
2019-05-07T01:21:19.434Z,6.99
2019-05-07T01:22:18.845Z,6.95
2019-05-07T01:23:18.451Z,6.97
2019-05-07T01:24:18.433Z,6.94
2019-05-07T01:25:18.433Z,6.94
2019-05-07T01:26:18.450Z,6.91
2019-05-07T01:27:18.403Z,6.87
2019-05-07T01:28:18.383Z,6.84
2019-05-07T01:29:18.382Z,6.80
2019-05-07T01:30:18.376Z,6.79
2019-05-07T01:31:18.362Z,6.73
2019-05-07T01:32:18.412Z,6.71
2019-05-07T01:33:19.132Z,6.73
2019-05-07T01:34:18.631Z,6.76
2019-05-07T01:35:18.333Z,6.76
2019-05-07T01:36:18.321Z,6.73
2019-05-07T01:37:18.291Z,6.72
2019-05-07T01:38:18.328Z,6.69
2019-05-07T01:39:18.279Z,6.69
2019-05-07T01:40:18.272Z,6.66
2019-05-07T01:41:18.251Z,6.65
2019-05-07T01:42:18.260Z,6.65
2019-05-07T01:43:18.231Z,6.62
2019-05-07T01:44:18.282Z,6.56
2019-05-07T01:45:18.217Z,6.53
2019-05-07T01:46:18.490Z,6.51
2019-05-07T01:47:18.190Z,6.51
2019-05-07T01:48:18.190Z,6.53
2019-05-07T01:49:18.170Z,6.54
2019-05-07T01:50:18.209Z,6.54
2019-05-07T01:51:18.150Z,6.59
2019-05-07T01:52:18.149Z,6.65
2019-05-07T01:53:18.428Z,6.68
2019-05-07T01:54:18.119Z,6.69
2019-05-07T01:55:18.108Z,6.69
2019-05-07T01:56:18.143Z,6.69
2019-05-07T01:57:18.088Z,6.71
2019-05-07T01:58:18.569Z,6.71
2019-05-07T01:59:18.069Z,6.72
2019-05-07T02:01:42.890Z,6.72
2019-05-07T02:02:42.462Z,6.69
2019-05-07T02:03:42.016Z,6.73
2019-05-07T02:04:42.611Z,6.80
2019-05-07T02:05:42.303Z,6.86
2019-05-07T02:06:40.368Z,6.91
2019-05-07T02:07:42.783Z,6.94
2019-05-07T02:08:42.349Z,6.90
2019-05-07T02:09:42.321Z,6.87
2019-05-07T02:10:40.318Z,6.91
2019-05-07T02:11:42.292Z,6.90
2019-05-07T02:12:42.411Z,6.79
2019-05-07T02:13:41.988Z,6.71
2019-05-07T02:14:42.139Z,6.58
2019-05-07T02:15:40.317Z,6.59
2019-05-07T02:16:41.868Z,6.65
2019-05-07T02:17:40.282Z,6.63
2019-05-07T02:18:42.251Z,6.69
2019-05-07T02:19:42.531Z,6.77
2019-05-07T02:20:42.469Z,6.79
2019-05-07T02:21:42.180Z,6.84
2019-05-07T02:22:40.221Z,6.86
2019-05-07T02:23:42.408Z,6.84
2019-05-07T02:24:40.174Z,6.87
2019-05-07T02:25:42.039Z,6.89
2019-05-07T02:26:42.898Z,6.83
2019-05-07T02:27:42.114Z,6.79
2019-05-07T02:28:42.483Z,6.72
2019-05-07T02:29:40.106Z,6.71
2019-05-07T02:30:40.121Z,6.72
2019-05-07T02:31:40.136Z,6.71
2019-05-07T02:32:42.928Z,6.68
2019-05-07T02:33:43.464Z,6.61
2019-05-07T02:34:43.717Z,6.59
2019-05-07T02:35:43.574Z,6.54
2019-05-07T02:36:42.966Z,6.59
2019-05-07T02:37:48.355Z,6.61
2019-05-07T02:38:43.901Z,6.61
2019-05-07T02:39:44.001Z,6.63
2019-05-07T02:40:43.122Z,6.63
2019-05-07T02:41:43.762Z,6.65
2019-05-07T02:42:40.035Z,6.62
2019-05-07T02:43:42.845Z,6.51
2019-05-07T02:44:39.963Z,6.48
2019-05-07T02:45:39.967Z,6.53
2019-05-07T02:46:43.126Z,6.58
2019-05-07T02:47:43.511Z,6.58
2019-05-07T02:48:42.623Z,6.61
2019-05-07T02:49:39.936Z,6.68
2019-05-07T02:50:39.900Z,6.73
2019-05-07T02:51:43.224Z,6.76
2019-05-07T02:52:39.901Z,6.77
2019-05-07T02:53:42.824Z,6.77
2019-05-07T02:54:43.629Z,6.76
2019-05-07T02:55:43.393Z,6.73
2019-05-07T02:56:43.017Z,6.68
2019-05-07T02:57:43.219Z,6.66
2019-05-07T02:58:39.834Z,6.63
2019-05-07T02:59:39.819Z,6.62
2019-05-07T03:00:43.117Z,6.61
2019-05-07T03:01:43.017Z,6.56
2019-05-07T03:02:39.775Z,6.54
2019-05-07T03:03:39.767Z,6.54
2019-05-07T03:04:39.757Z,6.53
2019-05-07T03:05:42.840Z,6.56
2019-05-07T03:06:39.744Z,6.56
2019-05-07T03:07:42.556Z,6.54
2019-05-07T03:08:39.765Z,6.47
2019-05-07T03:09:42.798Z,6.40
2019-05-07T03:10:39.673Z,6.33
2019-05-07T03:11:39.678Z,6.30
2019-05-07T03:12:42.750Z,6.26
2019-05-07T03:13:39.774Z,6.22
2019-05-07T03:15:04.070Z,6.21
2019-05-07T03:15:39.641Z,6.18
2019-05-07T03:16:47.552Z,6.19
2019-05-07T03:17:42.926Z,6.18
2019-05-07T03:18:43.497Z,6.19
2019-05-07T03:19:42.746Z,6.22
2019-05-07T03:20:39.595Z,6.28
2019-05-07T03:21:39.583Z,6.26
2019-05-07T03:22:42.619Z,6.26
2019-05-07T03:23:42.669Z,6.22
2019-05-07T03:24:39.530Z,6.16
2019-05-07T03:25:42.974Z,6.18
2019-05-07T03:26:39.543Z,6.18
2019-05-07T03:27:39.509Z,6.18
2019-05-07T03:28:42.767Z,6.14
2019-05-07T03:29:39.511Z,6.14
2019-05-07T03:30:39.486Z,6.18
2019-05-07T03:31:39.573Z,6.16
2019-05-07T03:32:40.644Z,6.11
2019-05-07T03:33:39.455Z,6.13
2019-05-07T03:34:39.432Z,6.16
2019-05-07T03:35:39.459Z,6.16
2019-05-07T03:36:39.459Z,6.16
2019-05-07T03:37:39.447Z,6.14
2019-05-07T03:38:39.415Z,6.13
2019-05-07T03:39:39.445Z,6.18
2019-05-07T03:40:39.382Z,6.19
2019-05-07T03:41:39.400Z,6.25
2019-05-07T03:42:39.354Z,6.26
2019-05-07T03:43:39.398Z,6.30
2019-05-07T03:44:39.348Z,6.30
2019-05-07T03:45:42.968Z,6.26
2019-05-07T03:46:53.305Z,6.25
2019-05-07T03:47:43.553Z,6.28
2019-05-07T03:48:39.295Z,6.21
2019-05-07T03:49:39.343Z,6.19
2019-05-07T03:50:39.256Z,6.14
2019-05-07T03:51:39.256Z,6.10
2019-05-07T03:52:39.243Z,6.11
2019-05-07T03:53:39.268Z,6.13
2019-05-07T03:54:42.856Z,6.19
2019-05-07T03:55:39.236Z,6.28
2019-05-07T03:56:39.206Z,6.35
2019-05-07T03:57:39.191Z,6.40
2019-05-07T03:58:39.190Z,6.38
2019-05-07T03:59:39.167Z,6.36
2019-05-07T04:00:39.169Z,6.41
2019-05-07T04:01:39.201Z,6.44
2019-05-07T04:02:39.545Z,6.46
2019-05-07T04:03:39.151Z,6.41
2019-05-07T04:04:39.141Z,6.43
2019-05-07T04:05:39.118Z,6.43
2019-05-07T04:06:39.090Z,6.41
2019-05-07T04:07:39.131Z,6.38
2019-05-07T04:08:39.095Z,6.36
2019-05-07T04:09:39.069Z,6.35
2019-05-07T04:10:39.610Z,6.32
2019-05-07T04:11:39.061Z,6.30
2019-05-07T04:12:39.116Z,6.30
2019-05-07T04:13:39.067Z,6.29
2019-05-07T04:14:39.014Z,6.28
2019-05-07T04:15:39.016Z,6.28
2019-05-07T04:16:39.337Z,6.25
2019-05-07T04:17:39.003Z,6.26
2019-05-07T04:18:38.983Z,6.26
2019-05-07T04:19:39.226Z,6.25
2019-05-07T04:20:38.958Z,6.28
2019-05-07T04:21:38.962Z,6.30
2019-05-07T04:22:38.947Z,6.30
2019-05-07T04:23:39.019Z,6.28
2019-05-07T04:24:38.904Z,6.28
2019-05-07T04:25:39.626Z,6.29
2019-05-07T04:26:38.893Z,6.28
2019-05-07T04:27:38.912Z,6.28
2019-05-07T04:28:39.161Z,6.29
2019-05-07T04:29:38.919Z,6.35
2019-05-07T04:30:38.853Z,6.38
2019-05-07T04:31:38.901Z,6.40
2019-05-07T04:32:38.835Z,6.43
2019-05-07T04:33:38.833Z,6.43
2019-05-07T04:34:38.803Z,6.38
2019-05-07T04:35:38.826Z,6.35
2019-05-07T04:36:38.803Z,6.35
2019-05-07T04:37:38.823Z,6.41
2019-05-07T04:38:38.764Z,6.43
2019-05-07T04:39:38.780Z,6.46
2019-05-07T04:40:39.118Z,6.53
2019-05-07T04:41:38.825Z,6.59
2019-05-07T04:42:38.748Z,6.62
2019-05-07T04:43:39.701Z,6.65
2019-05-07T04:44:38.781Z,6.66
2019-05-07T04:45:38.784Z,6.69
2019-05-07T04:46:38.678Z,6.69
2019-05-07T04:47:44.255Z,6.69
2019-05-07T04:48:39.701Z,6.68
2019-05-07T04:49:38.652Z,6.68
2019-05-07T04:50:43.611Z,6.68
2019-05-07T04:51:39.628Z,6.71
2019-05-07T04:52:38.625Z,6.68
2019-05-07T04:53:38.591Z,6.62
2019-05-07T04:54:38.651Z,6.61
2019-05-07T04:55:38.635Z,6.62
2019-05-07T04:56:39.189Z,6.65
2019-05-07T04:57:38.608Z,6.66
2019-05-07T04:58:38.560Z,6.68
2019-05-07T04:59:38.848Z,6.72
2019-05-07T05:00:43.186Z,6.76
2019-05-07T05:01:38.548Z,6.69
2019-05-07T05:02:38.612Z,6.65
2019-05-07T05:03:39.436Z,6.51
2019-05-07T05:04:38.534Z,6.43
2019-05-07T05:05:38.753Z,6.44
2019-05-07T05:06:42.267Z,6.43
2019-05-07T05:07:38.475Z,6.40
2019-05-07T05:08:38.509Z,6.44
2019-05-07T05:09:42.437Z,6.50
2019-05-07T05:10:38.730Z,6.56
2019-05-07T05:11:43.642Z,6.61
2019-05-07T05:12:38.560Z,6.68
2019-05-07T05:13:38.425Z,6.73
2019-05-07T05:14:38.413Z,6.80
2019-05-07T05:15:38.385Z,6.89
2019-05-07T05:16:38.399Z,6.95
2019-05-07T05:17:50.445Z,6.94
2019-05-07T05:18:39.389Z,6.80
2019-05-07T05:19:39.124Z,6.76
2019-05-07T05:20:38.565Z,6.65
2019-05-07T05:21:38.511Z,6.68
2019-05-07T05:22:39.258Z,6.72
2019-05-07T05:23:38.407Z,6.79
2019-05-07T05:24:42.553Z,6.86
2019-05-07T05:25:39.694Z,6.98
2019-05-07T05:26:41.804Z,6.95
2019-05-07T05:27:38.258Z,6.87
2019-05-07T05:28:38.258Z,6.80
2019-05-07T05:29:38.261Z,6.81
2019-05-07T05:30:38.257Z,6.89
2019-05-07T05:31:38.341Z,6.97
2019-05-07T05:32:38.888Z,7.04
2019-05-07T05:33:38.515Z,7.09
2019-05-07T05:34:38.178Z,7.15
2019-05-07T05:35:38.191Z,7.17
2019-05-07T05:36:38.206Z,7.16
2019-05-07T05:37:38.429Z,7.07
2019-05-07T05:38:38.408Z,7.04
2019-05-07T05:39:38.126Z,7.02
2019-05-07T05:40:38.523Z,7.02
2019-05-07T05:41:39.095Z,6.94
2019-05-07T05:42:38.152Z,6.95
2019-05-07T05:43:38.531Z,6.98
2019-05-07T05:44:38.093Z,7.01
2019-05-07T05:45:38.919Z,6.97
2019-05-07T05:46:38.920Z,7.02
2019-05-07T05:47:38.043Z,7.12
2019-05-07T05:48:38.067Z,7.16
2019-05-07T05:49:38.076Z,7.12
2019-05-07T05:50:38.036Z,7.13
2019-05-07T05:51:38.016Z,7.15
2019-05-07T05:52:37.991Z,7.16
2019-05-07T05:53:38.729Z,7.19
2019-05-07T05:54:38.123Z,7.29
2019-05-07T05:55:37.958Z,7.44
2019-05-07T05:56:37.957Z,7.56
2019-05-07T05:57:37.923Z,7.56
2019-05-07T05:58:37.932Z,7.66
2019-05-07T05:59:49.269Z,7.67
2019-05-07T06:00:38.979Z,7.77
2019-05-07T06:01:38.371Z,7.87
2019-05-07T06:02:37.885Z,7.97
2019-05-07T06:03:37.893Z,8.07
2019-05-07T06:04:37.964Z,8.17
2019-05-07T06:05:38.502Z,8.25
2019-05-07T06:06:37.991Z,8.25
2019-05-07T06:07:37.970Z,8.28
2019-05-07T06:08:38.175Z,8.28
2019-05-07T06:09:37.904Z,8.39
2019-05-07T06:10:38.392Z,8.53
2019-05-07T06:11:37.788Z,8.55
2019-05-07T06:12:37.957Z,8.65
2019-05-07T06:13:38.398Z,8.68
2019-05-07T06:14:37.754Z,8.66
2019-05-07T06:15:37.755Z,8.72
2019-05-07T06:16:37.770Z,8.79
2019-05-07T06:17:37.800Z,8.81
2019-05-07T06:18:37.764Z,8.86
2019-05-07T06:19:37.709Z,8.87
2019-05-07T06:20:37.719Z,8.88
2019-05-07T06:21:37.734Z,8.93
2019-05-07T06:22:37.737Z,8.97
2019-05-07T06:23:37.711Z,8.96
2019-05-07T06:24:37.680Z,8.94
2019-05-07T06:25:37.628Z,8.94
2019-05-07T06:26:37.651Z,8.88
2019-05-07T06:27:37.662Z,8.79
2019-05-07T06:28:42.547Z,8.73
2019-05-07T06:29:37.599Z,8.78
2019-05-07T06:30:37.657Z,8.83
2019-05-07T06:31:37.595Z,8.86
2019-05-07T06:32:37.590Z,8.88
2019-05-07T06:33:37.883Z,8.87
2019-05-07T06:34:37.529Z,8.79
2019-05-07T06:35:37.606Z,8.79
2019-05-07T06:36:37.572Z,8.73
2019-05-07T06:37:37.524Z,8.76
2019-05-07T06:38:37.508Z,8.83
2019-05-07T06:39:37.478Z,8.83
2019-05-07T06:40:38.033Z,8.84
2019-05-07T06:41:37.585Z,8.63
2019-05-07T06:42:37.521Z,8.51
2019-05-07T06:43:37.463Z,8.33
2019-05-07T06:44:37.467Z,8.15
2019-05-07T06:45:37.447Z,7.93
2019-05-07T06:46:38.807Z,7.81
2019-05-07T06:47:37.981Z,7.81
2019-05-07T06:48:42.689Z,7.89
2019-05-07T06:49:38.411Z,7.93
2019-05-07T06:50:37.734Z,8.00
2019-05-07T06:51:37.397Z,8.12
2019-05-07T06:52:53.498Z,8.18
2019-05-07T06:53:42.104Z,8.18
2019-05-07T06:54:37.408Z,8.25
2019-05-07T06:55:38.235Z,8.35
2019-05-07T06:56:37.332Z,8.44
2019-05-07T06:57:37.319Z,8.51
2019-05-07T06:58:37.331Z,8.65
2019-05-07T06:59:37.309Z,8.78
2019-05-07T07:00:37.323Z,8.90
2019-05-07T07:01:42.176Z,8.88
2019-05-07T07:02:37.318Z,9.01
2019-05-07T07:03:37.247Z,9.23
2019-05-07T07:04:37.265Z,9.48
2019-05-07T07:05:37.571Z,9.70
2019-05-07T07:06:37.737Z,9.88
2019-05-07T07:07:37.719Z,10.10
2019-05-07T07:08:37.250Z,10.21
2019-05-07T07:09:37.158Z,10.28
2019-05-07T07:10:37.164Z,10.00
2019-05-07T07:11:37.168Z,9.82
2019-05-07T07:12:37.177Z,9.85
2019-05-07T07:13:37.162Z,10.01
2019-05-07T07:14:37.131Z,10.09
2019-05-07T07:15:37.179Z,10.01
2019-05-07T07:16:37.105Z,10.07
2019-05-07T07:17:37.861Z,10.17
2019-05-07T07:18:48.346Z,10.12
2019-05-07T07:19:38.054Z,10.07
2019-05-07T07:20:37.099Z,9.99
2019-05-07T07:21:37.069Z,9.85
2019-05-07T07:22:37.052Z,9.78
2019-05-07T07:23:37.440Z,9.68
2019-05-07T07:24:37.050Z,9.53
2019-05-07T07:25:37.011Z,9.34
2019-05-07T07:26:37.006Z,9.15
2019-05-07T07:27:37.029Z,9.20
2019-05-07T07:28:36.986Z,9.24
2019-05-07T07:29:36.981Z,9.50
2019-05-07T07:30:37.027Z,9.40
2019-05-07T07:31:37.683Z,9.32
2019-05-07T07:32:36.944Z,9.27
2019-05-07T07:33:36.920Z,9.24
2019-05-07T07:34:36.921Z,9.23
2019-05-07T07:35:36.885Z,9.16
2019-05-07T07:36:36.956Z,9.02
2019-05-07T07:37:36.920Z,8.93
2019-05-07T07:38:36.870Z,8.94
2019-05-07T07:39:36.870Z,9.23
2019-05-07T07:40:36.861Z,9.75
2019-05-07T07:41:36.847Z,10.25
2019-05-07T07:42:36.861Z,10.76
2019-05-07T07:43:36.829Z,10.73
2019-05-07T07:44:36.821Z,10.21
2019-05-07T07:45:36.798Z,10.32
2019-05-07T07:46:36.828Z,10.58
2019-05-07T07:47:36.789Z,10.17
2019-05-07T07:48:36.803Z,9.79
2019-05-07T07:49:36.766Z,9.63
2019-05-07T07:50:36.782Z,9.56
2019-05-07T07:51:41.753Z,9.94
2019-05-07T07:52:37.739Z,10.14
2019-05-07T07:53:36.731Z,10.03
2019-05-07T07:54:36.758Z,10.21
2019-05-07T07:55:36.689Z,10.60
2019-05-07T07:56:49.069Z,10.92
2019-05-07T07:57:37.685Z,11.16
2019-05-07T07:58:36.660Z,11.44
2019-05-07T07:59:36.776Z,11.67
2019-05-07T08:00:36.718Z,12.01
2019-05-07T08:01:36.668Z,12.30
2019-05-07T08:02:36.672Z,12.30
2019-05-07T08:03:36.692Z,12.12
2019-05-07T08:04:36.603Z,12.57
2019-05-07T08:05:36.616Z,12.29
2019-05-07T08:06:36.630Z,11.67
2019-05-07T08:07:36.578Z,11.52
2019-05-07T08:08:36.561Z,11.57
2019-05-07T08:09:36.561Z,12.04
2019-05-07T08:10:36.561Z,12.48
2019-05-07T08:11:36.555Z,12.08
2019-05-07T08:12:36.560Z,11.61
2019-05-07T08:13:36.571Z,11.38
2019-05-07T08:14:36.524Z,11.44
2019-05-07T08:15:36.502Z,11.70
2019-05-07T08:16:36.494Z,12.33
2019-05-07T08:17:36.468Z,12.88
2019-05-07T08:18:36.799Z,12.89
2019-05-07T08:19:36.482Z,12.70
2019-05-07T08:20:36.464Z,12.16
2019-05-07T08:21:36.506Z,11.83
2019-05-07T08:22:37.184Z,11.93
2019-05-07T08:23:36.414Z,11.93
2019-05-07T08:24:36.423Z,11.80
2019-05-07T08:25:36.383Z,11.82
2019-05-07T08:26:37.203Z,11.72
2019-05-07T08:27:36.380Z,11.52
2019-05-07T08:28:36.711Z,11.41
2019-05-07T08:29:36.900Z,11.59
2019-05-07T08:30:36.364Z,11.61
2019-05-07T08:31:36.337Z,11.43
2019-05-07T08:32:36.320Z,11.49
2019-05-07T08:33:36.328Z,11.25
2019-05-07T08:34:36.321Z,10.81
2019-05-07T08:35:36.548Z,10.77
2019-05-07T08:36:36.315Z,10.73
2019-05-07T08:37:36.268Z,10.83
2019-05-07T08:38:36.397Z,11.11
2019-05-07T08:39:36.234Z,11.35
2019-05-07T08:40:36.244Z,11.49
2019-05-07T08:41:36.999Z,11.31
2019-05-07T08:42:36.246Z,11.36
2019-05-07T08:43:36.188Z,11.61
2019-05-07T08:44:36.219Z,12.01
2019-05-07T08:45:36.270Z,12.34
2019-05-07T08:46:36.169Z,12.31
2019-05-07T08:47:36.547Z,12.24
2019-05-07T08:48:36.198Z,12.52
2019-05-07T08:49:39.932Z,12.85
2019-05-07T08:50:37.178Z,13.02
2019-05-07T08:51:36.162Z,12.64
2019-05-07T08:52:36.134Z,12.30
2019-05-07T08:53:37.080Z,12.05
2019-05-07T08:54:36.143Z,11.97
2019-05-07T08:55:36.084Z,11.97
2019-05-07T08:56:36.112Z,12.01
2019-05-07T08:57:36.079Z,12.66
2019-05-07T08:58:36.054Z,12.92
2019-05-07T08:59:36.581Z,13.12
2019-05-07T09:00:36.105Z,12.96
2019-05-07T09:01:36.015Z,12.62
2019-05-07T09:02:36.028Z,12.24
2019-05-07T09:03:36.015Z,12.21
2019-05-07T09:04:36.012Z,12.13
2019-05-07T09:05:36.000Z,12.01
2019-05-07T09:06:36.644Z,11.72
2019-05-07T09:07:36.859Z,11.52
2019-05-07T09:08:35.954Z,11.41
2019-05-07T09:09:35.974Z,11.25
2019-05-07T09:10:36.634Z,11.21
2019-05-07T09:11:35.921Z,11.24
2019-05-07T09:12:37.745Z,11.19
2019-05-07T09:13:36.566Z,11.20
2019-05-07T09:14:35.898Z,11.35
2019-05-07T09:15:35.911Z,11.27
2019-05-07T09:16:35.885Z,11.09
2019-05-07T09:17:35.846Z,11.01
2019-05-07T09:18:35.880Z,11.13
2019-05-07T09:19:47.295Z,11.25
2019-05-07T09:20:36.908Z,11.46
2019-05-07T09:21:35.815Z,12.46
2019-05-07T09:22:35.791Z,14.10
2019-05-07T09:23:35.811Z,15.23
2019-05-07T09:24:36.587Z,16.40
2019-05-07T09:25:35.857Z,16.99
2019-05-07T09:26:35.927Z,17.30
2019-05-07T09:27:35.782Z,17.59
2019-05-07T09:28:35.733Z,18.22
2019-05-07T09:29:35.723Z,18.70
2019-05-07T09:30:35.773Z,18.07
2019-05-07T09:31:35.724Z,17.69
2019-05-07T09:32:35.692Z,18.24
2019-05-07T09:33:35.663Z,18.59
2019-05-07T09:34:35.672Z,18.28
2019-05-07T09:35:35.691Z,17.84
2019-05-07T09:36:36.122Z,16.40
2019-05-07T09:37:35.721Z,15.39
2019-05-07T09:38:35.634Z,14.87
2019-05-07T09:39:35.643Z,15.56
2019-05-07T09:40:35.606Z,15.67
2019-05-07T09:41:35.619Z,14.64
2019-05-07T09:42:36.325Z,14.37
2019-05-07T09:43:35.596Z,13.63
2019-05-07T09:44:35.583Z,13.00
2019-05-07T09:45:35.744Z,12.57
2019-05-07T09:46:35.531Z,12.24
2019-05-07T09:47:35.553Z,12.24
2019-05-07T09:48:35.767Z,12.24
2019-05-07T09:49:35.558Z,12.01
2019-05-07T09:50:36.068Z,11.86
2019-05-07T09:51:35.506Z,11.85
2019-05-07T09:52:36.023Z,11.77
2019-05-07T09:53:35.648Z,11.70
2019-05-07T09:54:35.531Z,11.53
2019-05-07T09:55:35.521Z,11.54
2019-05-07T09:56:35.434Z,11.67
2019-05-07T09:57:35.427Z,11.89
2019-05-07T09:58:42.769Z,11.86
2019-05-07T09:59:35.597Z,11.70
2019-05-07T10:00:35.445Z,11.61
2019-05-07T10:01:37.264Z,11.57
2019-05-07T10:02:35.388Z,11.47
2019-05-07T10:03:35.362Z,11.39
2019-05-07T10:04:36.138Z,11.36
2019-05-07T10:05:35.454Z,11.43
2019-05-07T10:06:35.468Z,11.50
2019-05-07T10:07:35.308Z,11.53
2019-05-07T10:08:35.328Z,11.65
2019-05-07T10:09:35.308Z,11.77
2019-05-07T10:10:35.293Z,11.59
2019-05-07T10:11:36.248Z,11.52
2019-05-07T10:12:35.442Z,11.61
2019-05-07T10:13:35.690Z,11.74
2019-05-07T10:14:35.263Z,11.87
2019-05-07T10:15:35.252Z,11.99
2019-05-07T10:16:35.237Z,12.31
2019-05-07T10:17:35.310Z,12.57
2019-05-07T10:18:35.249Z,12.88
2019-05-07T10:19:37.360Z,15.12
2019-05-07T10:20:35.211Z,15.81
2019-05-07T10:21:36.515Z,15.31
2019-05-07T10:22:35.264Z,14.84
2019-05-07T10:23:35.875Z,15.61
2019-05-07T10:24:35.918Z,14.02
2019-05-07T10:25:35.709Z,13.43
2019-05-07T10:26:35.142Z,13.20
2019-05-07T10:27:35.144Z,13.36
2019-05-07T10:28:35.155Z,13.25
2019-05-07T10:29:35.231Z,13.09
2019-05-07T10:30:35.125Z,12.88
2019-05-07T10:31:35.870Z,12.64
2019-05-07T10:32:35.101Z,12.54
2019-05-07T10:33:35.079Z,12.37
2019-05-07T10:34:35.036Z,12.23
2019-05-07T10:35:35.041Z,12.04
2019-05-07T10:36:35.158Z,12.11
2019-05-07T10:37:35.454Z,12.21
2019-05-07T10:38:35.000Z,12.23
2019-05-07T10:39:35.100Z,12.05
2019-05-07T10:40:35.002Z,11.82
2019-05-07T10:41:35.686Z,11.74
2019-05-07T10:42:35.039Z,11.67
2019-05-07T10:43:35.039Z,11.67
2019-05-07T10:44:34.946Z,11.61
2019-05-07T10:45:36.650Z,11.57
2019-05-07T10:46:36.101Z,11.52
2019-05-07T10:47:36.466Z,11.36
2019-05-07T10:48:35.280Z,11.20
2019-05-07T10:49:35.035Z,11.27
2019-05-07T10:50:38.951Z,11.36
2019-05-07T10:51:34.902Z,11.38
2019-05-07T10:52:34.870Z,11.43
2019-05-07T10:53:35.002Z,11.39
2019-05-07T10:54:34.892Z,11.44
2019-05-07T10:55:34.821Z,11.54
2019-05-07T10:56:34.816Z,11.70
2019-05-07T10:57:34.839Z,11.68
2019-05-07T10:58:34.809Z,11.65
2019-05-07T10:59:34.820Z,11.65
2019-05-07T11:00:36.852Z,11.77
2019-05-07T11:01:34.757Z,11.93
2019-05-07T11:02:35.163Z,11.99
2019-05-07T11:03:34.752Z,12.08
2019-05-07T11:04:42.123Z,12.24
2019-05-07T11:05:35.847Z,12.37
2019-05-07T11:06:34.718Z,12.52
2019-05-07T11:07:34.847Z,12.66
2019-05-07T11:08:34.732Z,12.75
2019-05-07T11:09:35.078Z,12.85
2019-05-07T11:10:34.693Z,12.95
2019-05-07T11:11:34.785Z,13.15
2019-05-07T11:12:34.693Z,13.24
2019-05-07T11:13:34.721Z,12.81
2019-05-07T11:14:34.909Z,12.59
2019-05-07T11:15:36.544Z,12.41
2019-05-07T11:16:34.693Z,12.31
2019-05-07T11:17:34.789Z,12.16
2019-05-07T11:18:34.638Z,12.01
2019-05-07T11:19:34.684Z,11.90
2019-05-07T11:20:46.586Z,12.05
2019-05-07T11:21:35.597Z,12.23
2019-05-07T11:22:34.556Z,12.30
2019-05-07T11:23:35.568Z,12.37
2019-05-07T11:24:34.567Z,12.42
2019-05-07T11:25:34.570Z,12.60
2019-05-07T11:26:34.532Z,12.93
2019-05-07T11:27:34.604Z,13.09
2019-05-07T11:28:34.637Z,13.14
2019-05-07T11:29:36.592Z,13.47
2019-05-07T11:30:35.114Z,13.91
2019-05-07T11:31:34.565Z,13.94
2019-05-07T11:32:34.488Z,13.73
2019-05-07T11:33:34.577Z,13.61
2019-05-07T11:34:34.429Z,13.43
2019-05-07T11:35:34.936Z,13.20
2019-05-07T11:36:35.160Z,12.99
2019-05-07T11:37:34.600Z,13.04
2019-05-07T11:38:34.373Z,13.18
2019-05-07T11:39:34.385Z,13.24
2019-05-07T11:40:35.679Z,13.37
2019-05-07T11:41:35.825Z,13.21
2019-05-07T11:42:34.370Z,13.11
2019-05-07T11:43:34.331Z,12.93
2019-05-07T11:44:34.366Z,12.93
2019-05-07T11:45:35.485Z,13.27
2019-05-07T11:46:34.317Z,14.29
2019-05-07T11:47:34.345Z,14.54
2019-05-07T11:48:36.419Z,14.80
2019-05-07T11:49:35.882Z,14.93
2019-05-07T11:50:34.504Z,15.19
2019-05-07T11:51:34.272Z,15.45
2019-05-07T11:52:35.899Z,15.88
2019-05-07T11:53:35.261Z,16.15
2019-05-07T11:54:36.062Z,15.72
2019-05-07T11:55:34.755Z,16.45
2019-05-07T11:56:34.370Z,16.71
2019-05-07T11:57:34.235Z,17.29
2019-05-07T11:58:34.246Z,17.18
2019-05-07T11:59:34.267Z,17.20
2019-05-07T12:00:34.774Z,17.25
2019-05-07T12:01:43.469Z,17.91
2019-05-07T12:02:35.166Z,18.94
2019-05-07T12:03:34.234Z,20.58
2019-05-07T12:04:34.160Z,21.29
2019-05-07T12:05:34.624Z,21.26
2019-05-07T12:06:34.117Z,20.96
2019-05-07T12:07:34.075Z,21.35
2019-05-07T12:08:42.846Z,22.14
2019-05-07T12:09:35.047Z,21.94
2019-05-07T12:10:34.638Z,21.02
2019-05-07T12:11:34.067Z,20.15
2019-05-07T12:12:34.028Z,20.27
2019-05-07T12:13:34.863Z,21.04
2019-05-07T12:14:35.004Z,21.26
2019-05-07T12:15:34.165Z,22.06
2019-05-07T12:16:34.257Z,23.01
2019-05-07T12:17:34.942Z,23.72
2019-05-07T12:18:34.283Z,24.08
2019-05-07T12:19:34.996Z,23.60
2019-05-07T12:20:33.956Z,22.71
2019-05-07T12:21:34.139Z,20.54
2019-05-07T12:22:34.623Z,19.01
2019-05-07T12:23:36.236Z,20.08
2019-05-07T12:24:38.751Z,21.69
2019-05-07T12:25:34.693Z,22.99
2019-05-07T12:26:33.964Z,24.13
2019-05-07T12:27:34.598Z,24.12
2019-05-07T12:28:33.867Z,22.43
2019-05-07T12:29:33.885Z,21.51
2019-05-07T12:30:33.842Z,21.35
2019-05-07T12:31:33.990Z,22.14
2019-05-07T12:32:35.738Z,23.12
2019-05-07T12:33:34.009Z,23.82
2019-05-07T12:34:33.809Z,23.09
2019-05-07T12:35:33.927Z,21.35
2019-05-07T12:36:33.800Z,19.83
2019-05-07T12:37:33.818Z,18.99
2019-05-07T12:38:33.790Z,18.67
2019-05-07T12:39:33.747Z,17.94
2019-05-07T12:40:33.787Z,16.96
2019-05-07T12:41:34.403Z,16.26
2019-05-07T12:42:33.799Z,16.22
2019-05-07T12:43:33.792Z,15.92
2019-05-07T12:44:35.258Z,17.13
2019-05-07T12:45:33.780Z,18.76
2019-05-07T12:46:33.769Z,18.15
2019-05-07T12:47:33.903Z,17.25
2019-05-07T12:48:33.684Z,16.38
2019-05-07T12:49:33.626Z,15.81
2019-05-07T12:50:33.619Z,17.14
2019-05-07T12:51:37.421Z,17.10
2019-05-07T12:52:34.273Z,16.12
2019-05-07T12:53:33.696Z,15.41
2019-05-07T12:54:36.504Z,15.26
2019-05-07T12:55:33.573Z,17.23
2019-05-07T12:56:33.654Z,18.67
2019-05-07T12:57:33.551Z,19.10
2019-05-07T12:58:33.542Z,17.70
2019-05-07T12:59:33.596Z,16.42
2019-05-07T13:00:33.534Z,15.76
2019-05-07T13:01:33.560Z,15.51
2019-05-07T13:02:40.566Z,15.26
2019-05-07T13:03:34.484Z,14.81
2019-05-07T13:04:33.525Z,14.57
2019-05-07T13:05:33.554Z,14.95
2019-05-07T13:06:33.437Z,15.41
2019-05-07T13:07:34.210Z,16.71
2019-05-07T13:08:33.446Z,16.55